Free Trial

IonQ (IONQ) Institutional Ownership

IonQ logo
$52.67 +4.67 (+9.73%)
Closing price 03:59 PM Eastern
Extended Trading
$46.84 -5.83 (-11.06%)
As of 05:36 PM Eastern
Extended trading is trading that happens on electronic markets outside of regular trading hours. This is a fair market value extended hours price provided by Massive. Learn more.

Institutional Ownership Changes (13F Filings) for IonQ (NYSE:IONQ)

Current
Institutional Ownership
Percentage
41.42%
Number of
Institutional Buyers
(last 12 months)
531
Total
Institutional Inflows
(last 12 months)
$3.72B
Number of
Institutional Sellers
(last 12 months)
161
Total
Institutional Outflows
(last 12 months)
$964.85M
Get IONQ Insider Trade Alerts

Want to know when executives and insiders are buying or selling IonQ stock? Sign up for InsiderTrades.com's daily newsletter to get the latest insider transactions delivered to your inbox daily.

SMS is currently available in Australia, Belgium, Canada, France, Germany, Ireland, Italy, New Zealand, the Netherlands, Singapore, South Africa, Spain, Switzerland, the United Kingdom, and the United States. By entering your phone number and clicking the sign-up button, you agree to receive periodic text messages from MarketBeat at the phone number you submitted, including texts that may be sent using an automatic telephone dialing system. Message and data rates may apply. Message frequency will vary. Messages will consist of stock alerts, news stories, and partner advertisements/offers. Consent is not a condition of the purchase of any goods or services. Text HELP for help/customer support. Unsubscribe at any time by replying "STOP" to any text message that you receive from MarketBeat or by visiting our mailing preferences page. Read our full terms of service and privacy policy.
Skip Chart & View Institutional Buying and Selling Data

IONQ Institutional Buying and Selling by Quarter

IonQ Major Shareholders & Ownership History

Reporting DateMajor Shareholder NameShares HeldMarket Value% of PortfolioQuarterly Change in SharesOwnership in CompanyDetails
5/6/2026Assetmark Inc.2,787$80K0.0%+1,001.6%0.001%
5/6/2026PeakShares LLC1,000$29K0.0%N/A0.000%
5/6/2026Financiere des Professionnels Fonds d investissement inc.6,904$199K0.0%N/A0.002%
5/6/2026Bessemer Group Inc.3,566$102K0.0%-98.3%0.001%
5/6/2026Allspring Global Investments Holdings LLC15,421$429K0.0%+12.4%0.004%
5/6/2026Independent Financial Group LLC11,637$335K0.0%N/A0.003%
5/5/2026Wealthfront Advisers LLC21,605$623K0.0%+34.9%0.006%
5/5/2026D.A. Davidson & CO.9,392$271K0.0%+12.7%0.003%
5/5/2026Bank of New York Mellon Corp1,815,366$52.34M0.0%+4.5%0.495%
5/5/2026NFSG Corp5,935$171K0.0%+52.1%0.002%
5/5/2026Livforsakringsbolaget Skandia Omsesidigt45,923$1.29M0.1%+2,086.8%0.013%
5/5/2026Sanctuary Advisors LLC40,404$1.17M0.0%+7.8%0.011%
5/5/2026 Sigma Planning Corp10,607$306K0.0%+4.2%0.003%
5/4/2026 Emerald Advisers LLC447,729$12.91M0.4%-1.1%0.122%
5/4/2026 Bleakley Financial Group LLC28,340$817K0.0%+39.0%0.008%
5/4/2026 Principal Financial Group Inc.110,386$3.18M0.0%-11.4%0.030%
5/4/2026 Chicago Partners Investment Group LLC6,231$180K0.0%+14.9%0.002%
5/4/2026 Tradewinds LLC.5,000$144K0.1%-8.8%0.001%
5/2/2026 International Assets Investment Management LLC17,676$492K0.0%+4.0%0.005%
5/2/2026 Diversify Wealth Management LLC20,239$583K0.0%+20.1%0.006%
5/2/2026 Carnegie Investment Counsel166,965$4.81M0.1%-44.2%0.046%
5/1/2026 Fifth Third Bancorp27,796$801K0.0%+22,498.4%0.008%
4/30/2026 Summit Securities Group LLC2,025$58K0.0%N/A0.001%
4/30/2026 Kestra Advisory Services LLC156,084$4.50M0.0%-7.6%0.043%
4/30/2026 Sumitomo Mitsui Trust Group Inc.567,593$16.36M0.0%-0.8%0.155%
4/30/2026 Resona Asset Management Co. Ltd.84,216$2.40M0.0%-3.2%0.023%
4/29/2026 Swedbank AB149,503$4.31M0.0%+147.7%0.041%
4/28/2026 Westfuller Advisors LLC2,587$75K0.0%-48.4%0.001%
4/28/2026 Abel Hall LLC19,066$550K0.1%+10.5%0.005%
4/28/2026 Bogart Wealth LLC1,273$37K0.0%+24.4%0.000%
4/28/2026 GM Advisory Group LLC10,250$296K0.0%N/A0.003%
4/28/2026 Praxis Investment Management Inc.10,061$290K0.0%+12.9%0.003%
4/28/2026 V Square Quantitative Management LLC3,362$97K0.0%-33.3%0.001%
4/28/2026 QRG Capital Management Inc.8,319$240K0.0%N/A0.002%
4/27/2026 Counterpoint Mutual Funds LLC8,807$254K0.0%N/A0.002%
4/27/2026 Private Advisor Group LLC98,590$2.84M0.0%-5.2%0.027%
4/27/2026 Leonteq Securities AG126,847$3.66M0.1%+194.9%0.035%
4/27/2026 Fjarde AP Fonden Fourth Swedish National Pension Fund125,556$3.62M0.0%+96.5%0.034%
4/25/2026 Strs Ohio44,700$1.29M0.0%-9.3%0.012%
4/24/2026 Root Financial Partners LLC1,725$50K0.0%+22.9%0.000%
4/24/2026 Letson Investment Management Inc.17,219$496K0.2%+36.5%0.005%
4/24/2026 Essex Financial Services Inc.22,318$643K0.0%+16.3%0.006%
4/24/2026 IFM Investors Pty Ltd58,479$1.69M0.0%+5.8%0.016%
4/23/2026 Lansforsakringar Fondforvaltning AB publ 98,702$2.85M0.0%N/A0.027%
4/22/2026 Patriot Financial Group Insurance Agency LLC52,600$1.52M0.1%+155.3%0.014%
4/22/2026 Janney Montgomery Scott LLC36,690$1.06M0.0%-4.3%0.010%
4/22/2026 Nicholas Wealth LLC.27,664$798K0.5%+7.3%0.008%
4/22/2026 Pictet Asset Management Holding SA108,863$3.14M0.0%-10.6%0.030%
4/22/2026 Venturi Wealth Management LLC7,363$212K0.0%N/A0.002%
4/20/2026 Kestra Private Wealth Services LLC27,029$779K0.0%-33.4%0.007%
4/20/2026 Blue Trust Inc.1,380$40K0.0%-14.4%0.000%
4/20/2026 OP Asset Management Ltd29,592$853K0.0%N/A0.008%
4/20/2026 Banque Cantonale Vaudoise27,840$803K0.0%-1.5%0.008%
4/18/2026 Western Pacific Wealth Management LP1,658$48K0.0%+152.0%0.000%
4/17/2026 Wealth Management Partners LLC13,641$393K0.1%+4.6%0.004%
4/17/2026 AdvisorNet Financial Inc3,271$94K0.0%-48.4%0.001%
4/16/2026 SG Americas Securities LLC20,936$604K0.0%+139.9%0.006%
4/16/2026 Capstone Wealth Management Group LLC10,810$485K0.3%+23.2%0.003%
4/16/2026 Strong Tower Advisory Services32,259$930K0.2%+3.1%0.009%
4/16/2026 Polianta Ltd32,500$936K0.1%+18.2%0.009%
4/16/2026 BI Asset Management Fondsmaeglerselskab A S7,469$215K0.0%-94.2%0.002%
4/15/2026 Nations Financial Group Inc. IA ADV8,615$248K0.0%-76.1%0.002%
3/20/2026Purpose Unlimited Inc.17,482$784K0.0%N/A0.005%
3/17/2026Rockefeller Capital Management L.P.511,178$22.94M0.0%+257.1%0.139%
3/13/2026Fund Advisors of America Inc FL10,311$463K0.4%N/A0.003%
3/13/2026Spear Advisors LLC41,291$1.85M1.3%N/A0.011%
3/9/2026Corient Private Wealth LLC61,437$2.76M0.0%+29.5%0.017%
3/6/2026 Hsbc Holdings PLC165,524$7.49M0.0%+1,209.5%0.048%
3/4/2026 Pure Financial Advisors LLC15,664$703K0.0%+6.8%0.005%
3/4/2026SHP Wealth Management3,379$152K0.0%N/A0.001%
3/3/2026Caitong International Asset Management Co. Ltd1,866$84K0.0%-97.9%0.001%
3/2/2026 CFO Capital Management LLC23,723$1.06M0.8%N/A0.007%
2/25/2026Tempo Wealth LLC7,360$330K0.1%N/A0.002%
2/19/2026Invesco Ltd.611,895$27.46M0.0%+26.2%0.176%
2/19/2026 Axxcess Wealth Management LLC5,117$230K0.0%N/A0.001%
2/19/2026Corient Private Wealth LLC62,124$2.59M0.0%+31.0%0.018%
2/18/2026Ameriflex Group Inc.1,054$47K0.0%+157.1%0.000%
2/18/2026Mercer Global Advisors Inc. ADV24,790$1.11M0.0%-14.7%0.007%
2/18/2026Vident Advisory LLC258,530$11.60M0.1%+0.7%0.074%
2/18/2026Beacon Pointe Advisors LLC5,739$258K0.0%N/A0.002%
2/18/2026Mackenzie Financial Corp46,182$2.09M0.0%+134.9%0.013%
2/18/2026NewEdge Advisors LLC23,135$1.04M0.0%-33.5%0.007%
2/18/2026Empowered Funds LLC4,910$220K0.0%N/A0.001%
2/18/2026XTX Topco Ltd23,977$1.08M0.0%N/A0.007%
2/18/2026Zacks Investment Management45,622$2.05M0.0%-37.4%0.013%
2/18/2026Voloridge Investment Management LLC197,693$8.87M0.0%-54.8%0.057%
2/18/2026VestGen Advisors LLC4,823$216K0.0%-93.6%0.001%
2/18/2026Wellington Management Group LLP1,426,210$63.99M0.0%+75.0%0.411%
2/18/2026Toronto Dominion Bank45,791$2.06M0.0%N/A0.013%
2/18/2026Quadrature Capital Ltd570,797$25.61M0.3%-21.0%0.164%
2/18/2026Man Group plc145,039$6.51M0.0%-39.0%0.042%
2/18/2026Investment Management Corp of Ontario20,025$899K0.0%N/A0.006%
2/18/2026Janus Henderson Group PLC55,433$2.49M0.0%-51.4%0.016%
2/18/2026Engineers Gate Manager LP9,589$430K0.0%N/A0.003%
2/18/2026Banco Bilbao Vizcaya Argentaria S.A.15,109$680K0.0%+42.7%0.004%
2/18/2026Ballast Financial Advisors LLC10,000$449K0.5%N/A0.003%
2/18/2026Altshuler Shaham Ltd21,000$942K0.0%N/A0.006%
2/17/2026AQR Capital Management LLC68,114$3.06M0.0%+20.3%0.020%
2/17/2026 Abel Hall LLC17,254$774K0.2%+180.1%0.005%
2/17/2026EFG International AG38,917$1.75M0.0%N/A0.011%


IONQ Institutional Ownership - Frequently Asked Questions

Who are the largest shareholders of IONQ shares?

During the previous two years, 631 institutional investors and hedge funds held shares of IonQ. The most heavily invested institutionals were Vanguard Group Inc. ($1.56B), Morgan Stanley ($877.96M), State Street Corp ($402.16M), Geode Capital Management LLC ($361.62M), Norges Bank ($199.75M), Marex Group plc ($183.23M), and Price T Rowe Associates Inc. MD ($179.93M).Learn more on IonQ's institutional investors.

What percentage of IonQ's stock is owned by institutional investors?

41.42% of IonQ's stock is owned by institutional investors. Learn more on IONQ's institutional investor holdings.

Which institutional investors have been buying IonQ's stock?

Of the 608 institutional investors that purchased IonQ's stock in the last 24 months, the following investors and hedge funds have bought the highest volume of shares: Vanguard Group Inc. ($14.44M), Norges Bank ($7.27M), JPMorgan Chase & Co. ($4.94M), State Street Corp ($4.47M), Marex Group plc ($3.86M), Clear Street Group Inc. ($3.20M), and SG Americas Securities LLC ($2.58M).

How much institutional buying is happening at IonQ?

Institutional investors have bought a total of 78,862,223 shares in the last 24 months. This purchase volume represents approximately $3.72B in transactions.

Which of IonQ's major shareholders have been selling company stock?

Of the 161 institutional investors that sold IonQ's stock in the last 24 months, the following investors and hedge funds have sold the highest volume of shares: Morgan Stanley ($6.77M), Cerberus Capital Management L.P. ($2.28M), Lansdowne Partners UK LLP ($1.80M), JPMorgan Chase & Co. ($1.45M), Tidal Investments LLC ($786.06K), Invesco Ltd. ($698.94K), and Macquarie Group Ltd. ($605.63K).

How much institutional selling is happening at IonQ?

Institutional investors have sold a total of 20,818,141 shares in the last 24 months. This volume of shares sold represents approximately $964.85M in transactions.



This page (NYSE:IONQ) was last updated on 5/6/2026 by MarketBeat.com Staff.
From Our Partners